Time;durP1;ratioP1;P1;durP2;ratioP2;P2;SDS_P1;SDS_P2;PMS_P1;PMS_P2;Temp;Humidity;BMP_temperature;BMP_pressure;BME280_temperature;BME280_humidity;BME280_pressure;Samples;Min_cycle;Max_cycle;Signal;HPM_P1;HPM_P2
2022/03/05 00:00:39;;;;;;;12.57;10.50;;;3.30;75.40;;;;;;10419011;28;20308;-85
2022/03/05 00:05:42;;;;;;;11.67;10.33;;;3.30;74.70;;;;;;10420580;28;20288;-84
2022/03/05 00:10:46;;;;;;;13.13;10.53;;;3.30;75.70;;;;;;10455751;28;20748;-83
2022/03/05 00:15:48;;;;;;;13.00;9.83;;;3.10;75.10;;;;;;10452839;28;20263;-83
2022/03/05 00:20:52;;;;;;;10.53;9.20;;;3.20;75.80;;;;;;10435162;28;20747;-83
2022/03/05 00:25:55;;;;;;;10.40;9.30;;;3.20;77.50;;;;;;10421103;28;20262;-83
2022/03/05 00:31:00;;;;;;;12.60;9.80;;;3.10;77.00;;;;;;10420694;28;20248;-86
2022/03/05 00:36:03;;;;;;;12.83;9.63;;;3.20;77.00;;;;;;10452781;28;20262;-83
2022/03/05 00:41:06;;;;;;;12.17;10.20;;;3.10;77.40;;;;;;10436509;28;20225;-83
2022/03/05 00:46:08;;;;;;;12.50;9.57;;;3.10;79.60;;;;;;10436821;28;20200;-83
2022/03/05 00:51:11;;;;;;;10.50;9.40;;;3.10;78.50;;;;;;10422379;28;20221;-84
2022/03/05 00:56:14;;;;;;;11.47;8.50;;;3.10;77.40;;;;;;10424725;28;20201;-83
2022/03/05 01:01:17;;;;;;;10.63;9.17;;;3.10;77.10;;;;;;10441115;28;20271;-83
2022/03/05 01:06:21;;;;;;;11.73;9.60;;;3.10;78.10;;;;;;10435084;28;20630;-84
2022/03/05 01:11:25;;;;;;;10.47;8.47;;;3.00;79.70;;;;;;10418201;28;20254;-82
2022/03/05 01:16:27;;;;;;;13.73;9.87;;;3.00;80.00;;;;;;10421561;28;20296;-84
2022/03/05 01:21:29;;;;;;;11.40;8.80;;;3.00;79.30;;;;;;10419215;28;20228;-84
2022/03/05 01:26:33;;;;;;;10.10;9.10;;;2.90;79.80;;;;;;10437250;28;20209;-84
2022/03/05 01:31:35;;;;;;;10.20;8.20;;;2.90;79.20;;;;;;10438387;28;20288;-85
2022/03/05 01:36:37;;;;;;;12.10;8.30;;;2.90;79.70;;;;;;10437087;28;20201;-83
2022/03/05 01:41:41;;;;;;;10.87;9.13;;;2.90;79.80;;;;;;10441524;28;20232;-84
2022/03/05 01:46:43;;;;;;;11.03;9.77;;;2.90;80.40;;;;;;10417578;28;20241;-82
2022/03/05 01:52:00;;;;;;;11.73;10.20;;;2.90;80.50;;;;;;10418797;28;20219;-83
2022/03/05 01:57:06;;;;;;;9.60;8.60;;;2.90;80.70;;;;;;10425814;28;21665;-81
2022/03/05 02:02:10;;;;;;;11.27;10.07;;;2.80;81.40;;;;;;10439028;28;20360;-81
2022/03/05 02:07:12;;;;;;;11.30;8.77;;;2.90;80.10;;;;;;10445620;28;20228;-87
2022/03/05 02:12:16;;;;;;;10.23;9.20;;;2.90;80.50;;;;;;10436056;28;20711;-85
2022/03/05 02:17:18;;;;;;;10.60;9.13;;;2.90;80.00;;;;;;10429701;28;20706;-83
2022/03/05 02:22:22;;;;;;;10.90;9.80;;;2.80;80.50;;;;;;10457933;28;20577;-86
2022/03/05 02:27:25;;;;;;;10.43;9.00;;;2.70;80.80;;;;;;10433781;28;20744;-82
2022/03/05 02:32:27;;;;;;;10.57;9.37;;;2.80;81.10;;;;;;10442018;28;20237;-82
2022/03/05 02:37:30;;;;;;;12.37;11.10;;;2.70;81.60;;;;;;10442615;28;20205;-82
2022/03/05 02:42:32;;;;;;;12.77;10.63;;;2.70;82.20;;;;;;10429320;28;20257;-84
2022/03/05 02:47:39;;;;;;;10.17;9.13;;;2.70;81.20;;;;;;10433477;28;20229;-85
2022/03/05 02:52:43;;;;;;;11.97;10.63;;;2.70;81.00;;;;;;10430235;28;20251;-84
2022/03/05 02:57:45;;;;;;;11.23;10.10;;;2.60;80.00;;;;;;10422928;28;20408;-85
2022/03/05 03:02:47;;;;;;;10.27;9.10;;;2.60;80.90;;;;;;10445975;28;20213;-85
2022/03/05 03:07:51;;;;;;;11.47;9.30;;;2.60;81.00;;;;;;10431229;28;20205;-85
2022/03/05 03:12:53;;;;;;;12.30;10.37;;;2.50;80.60;;;;;;10449455;28;20585;-83
2022/03/05 03:17:55;;;;;;;11.20;9.73;;;2.50;81.30;;;;;;10438888;28;20256;-84
2022/03/05 03:23:00;;;;;;;11.80;9.40;;;2.40;81.80;;;;;;10424404;28;20209;-82
2022/03/05 03:28:02;;;;;;;9.80;8.83;;;2.50;81.20;;;;;;10430957;28;20267;-85
2022/03/05 03:33:04;;;;;;;11.30;10.10;;;2.40;80.10;;;;;;10445661;28;20630;-86
2022/03/05 03:38:08;;;;;;;11.03;9.60;;;2.40;80.80;;;;;;10443137;28;20657;-83
2022/03/05 03:43:11;;;;;;;10.40;9.33;;;2.30;81.40;;;;;;10447230;28;20232;-83
2022/03/05 03:48:13;;;;;;;11.10;9.87;;;2.30;81.60;;;;;;10426162;28;20240;-83
2022/03/05 03:53:17;;;;;;;11.40;9.37;;;2.20;81.90;;;;;;10425462;28;20235;-82
2022/03/05 03:58:20;;;;;;;11.67;9.37;;;2.10;82.50;;;;;;10425496;28;20645;-83
2022/03/05 04:03:22;;;;;;;11.73;9.67;;;2.10;83.80;;;;;;10437343;28;20709;-83
2022/03/05 04:08:44;;;;;;;12.33;9.13;;;2.10;82.30;;;;;;10445436;28;20229;-82
2022/03/05 04:13:47;;;;;;;12.37;9.97;;;2.10;83.40;;;;;;10460073;28;20229;-83
2022/03/05 04:18:49;;;;;;;11.50;10.30;;;2.10;82.70;;;;;;10438435;28;20285;-83
2022/03/05 04:23:53;;;;;;;13.63;10.20;;;2.10;82.40;;;;;;10461667;28;20217;-83
2022/03/05 04:28:55;;;;;;;11.80;10.57;;;2.00;82.10;;;;;;10442880;28;20209;-83
2022/03/05 04:33:57;;;;;;;12.77;10.27;;;2.00;82.30;;;;;;10442668;28;20700;-83
2022/03/05 04:39:03;;;;;;;10.10;8.90;;;2.00;83.50;;;;;;10429875;28;20209;-83
2022/03/05 04:44:05;;;;;;;12.83;10.27;;;2.00;84.20;;;;;;10446788;28;20255;-82
2022/03/05 04:49:08;;;;;;;11.50;10.20;;;1.90;83.00;;;;;;10428231;28;20220;-84
2022/03/05 04:54:12;;;;;;;12.30;9.60;;;2.00;83.20;;;;;;10432624;28;20572;-85
2022/03/05 04:59:14;;;;;;;15.70;10.97;;;1.90;82.90;;;;;;10435792;28;20193;-84
2022/03/05 05:04:16;;;;;;;14.73;11.37;;;1.90;82.70;;;;;;10439630;28;20308;-84
2022/03/05 05:09:19;;;;;;;13.23;10.87;;;1.90;84.20;;;;;;10439051;28;20236;-84
2022/03/05 05:14:21;;;;;;;12.50;11.10;;;1.80;81.40;;;;;;10436519;28;20252;-85
2022/03/05 05:19:27;;;;;;;13.17;10.70;;;1.80;84.00;;;;;;10420624;28;20240;-84
2022/03/05 05:24:32;;;;;;;12.90;10.77;;;1.70;82.30;;;;;;10421851;28;20217;-83
2022/03/05 05:29:34;;;;;;;14.37;11.20;;;1.70;81.50;;;;;;10421717;28;20233;-83
2022/03/05 05:34:36;;;;;;;14.73;11.60;;;1.60;81.50;;;;;;10414598;28;20224;-84
2022/03/05 05:39:40;;;;;;;12.80;10.73;;;1.60;83.30;;;;;;10422956;28;20217;-84
2022/03/05 05:44:42;;;;;;;19.30;14.43;;;1.60;84.20;;;;;;10441096;28;20282;-84
2022/03/05 05:49:45;;;;;;;13.63;11.20;;;1.50;83.20;;;;;;10424706;28;20225;-84
2022/03/05 05:54:49;;;;;;;15.60;13.27;;;1.50;83.20;;;;;;10441853;28;20244;-82
2022/03/05 05:59:51;;;;;;;15.07;13.20;;;1.50;84.90;;;;;;10424216;28;20680;-82
2022/03/05 06:04:53;;;;;;;13.07;10.27;;;1.50;84.70;;;;;;10444643;28;20217;-82
2022/03/05 06:09:56;;;;;;;16.70;14.07;;;1.50;85.20;;;;;;10427826;28;20312;-83
2022/03/05 06:14:59;;;;;;;16.23;12.67;;;1.60;84.80;;;;;;10461107;28;20220;-85
2022/03/05 06:20:01;;;;;;;17.83;13.40;;;1.50;84.80;;;;;;10430608;28;20194;-85
2022/03/05 06:25:05;;;;;;;18.60;14.77;;;1.60;85.10;;;;;;10434547;28;20295;-85
2022/03/05 06:30:08;;;;;;;17.90;14.70;;;1.50;83.00;;;;;;10450551;28;20240;-85
2022/03/05 06:35:10;;;;;;;18.73;14.00;;;1.60;85.30;;;;;;10436174;28;20201;-84
2022/03/05 06:40:14;;;;;;;24.47;15.90;;;1.60;86.10;;;;;;10434677;28;20636;-86
2022/03/05 06:45:16;;;;;;;18.50;14.40;;;1.60;86.20;;;;;;10435723;28;20189;-85
2022/03/05 06:50:18;;;;;;;20.60;15.23;;;1.60;85.50;;;;;;10437587;28;20319;-85
2022/03/05 06:55:23;;;;;;;20.37;14.73;;;1.70;85.70;;;;;;10439591;28;20662;-84
2022/03/05 07:00:25;;;;;;;18.43;14.60;;;1.80;84.40;;;;;;10461622;28;20737;-85
2022/03/05 07:05:27;;;;;;;18.73;15.13;;;1.80;88.20;;;;;;10438628;28;20225;-84
2022/03/05 07:10:31;;;;;;;18.90;14.80;;;1.90;85.60;;;;;;10445254;28;20221;-84
2022/03/05 07:15:33;;;;;;;18.40;15.30;;;1.90;85.20;;;;;;10428630;28;20560;-84
2022/03/05 07:20:35;;;;;;;17.90;15.40;;;1.90;86.60;;;;;;10449787;28;20232;-84
2022/03/05 07:25:40;;;;;;;19.20;15.17;;;2.00;86.70;;;;;;10445720;28;20237;-85
2022/03/05 07:30:42;;;;;;;15.90;13.47;;;2.10;86.10;;;;;;10463727;28;20248;-85
2022/03/05 07:35:45;;;;;;;17.67;14.63;;;2.10;86.40;;;;;;10430578;28;20568;-84
2022/03/05 07:40:48;;;;;;;18.90;15.20;;;2.20;87.30;;;;;;10448057;28;20220;-85
2022/03/05 07:45:51;;;;;;;16.70;14.37;;;2.30;86.60;;;;;;10429529;28;20201;-84
2022/03/05 07:50:53;;;;;;;20.90;15.33;;;2.40;86.50;;;;;;10429774;28;20693;-85
2022/03/05 07:55:57;;;;;;;19.83;15.17;;;2.50;86.80;;;;;;10446766;28;20212;-84
2022/03/05 08:00:59;;;;;;;19.40;15.90;;;2.60;86.90;;;;;;10445583;28;20213;-85
2022/03/05 08:06:01;;;;;;;18.03;15.20;;;2.70;86.70;;;;;;10451480;28;20594;-85
2022/03/05 08:11:05;;;;;;;16.17;13.67;;;2.90;87.40;;;;;;10448072;28;20225;-85
2022/03/05 08:16:07;;;;;;;22.10;15.50;;;3.10;85.20;;;;;;10431875;28;20209;-85
2022/03/05 08:21:10;;;;;;;20.17;15.77;;;3.20;86.10;;;;;;10447134;28;20296;-83
2022/03/05 08:26:13;;;;;;;20.57;16.67;;;3.40;86.40;;;;;;10434700;28;20212;-83
2022/03/05 08:31:15;;;;;;;22.70;17.50;;;3.50;84.90;;;;;;10423445;28;20225;-83
2022/03/05 08:36:17;;;;;;;22.23;17.00;;;3.70;84.40;;;;;;10422585;28;20236;-86
2022/03/05 08:41:21;;;;;;;21.80;17.83;;;3.90;82.40;;;;;;10444306;28;20231;-82
2022/03/05 08:46:23;;;;;;;22.93;17.77;;;4.20;84.30;;;;;;10416006;28;20206;-83
2022/03/05 08:51:25;;;;;;;21.33;17.53;;;4.40;81.90;;;;;;10410074;28;20237;-85
2022/03/05 08:56:29;;;;;;;22.70;17.43;;;4.60;84.40;;;;;;10421858;28;20240;-82
2022/03/05 09:01:31;;;;;;;21.63;17.03;;;4.80;81.50;;;;;;10438497;28;20213;-82
2022/03/05 09:06:33;;;;;;;17.30;15.37;;;5.00;78.30;;;;;;10437936;28;20205;-85
2022/03/05 09:11:38;;;;;;;18.43;15.70;;;5.10;79.00;;;;;;10430976;28;20236;-84
2022/03/05 09:16:40;;;;;;;19.70;14.63;;;5.20;77.40;;;;;;10419376;28;20300;-83
2022/03/05 09:21:51;;;;;;;18.67;15.80;;;5.40;76.10;;;;;;10441008;28;20328;-83
2022/03/05 09:26:55;;;;;;;20.93;15.33;;;5.60;76.00;;;;;;10426509;28;20292;-83
2022/03/05 09:31:58;;;;;;;17.17;15.33;;;5.80;73.80;;;;;;10423183;28;20662;-85
2022/03/05 09:37:00;;;;;;;17.67;14.80;;;5.90;75.10;;;;;;10420994;28;20223;-82
2022/03/05 09:42:05;;;;;;;16.10;13.93;;;6.00;74.80;;;;;;10437494;28;20629;-83
2022/03/05 09:47:08;;;;;;;18.57;14.80;;;6.20;72.80;;;;;;10440500;28;20258;-83
2022/03/05 09:52:11;;;;;;;18.03;14.17;;;6.40;71.60;;;;;;10426574;28;20239;-84
2022/03/05 09:57:15;;;;;;;16.63;13.03;;;6.60;73.80;;;;;;10432379;28;20225;-83
2022/03/05 10:02:19;;;;;;;14.17;12.03;;;6.70;68.90;;;;;;10433445;28;20316;-86
2022/03/05 10:07:21;;;;;;;16.80;13.27;;;6.80;66.00;;;;;;10462019;28;20220;-84
2022/03/05 10:12:32;;;;;;;15.17;12.50;;;6.70;68.50;;;;;;10443825;28;20262;-83
2022/03/05 10:17:56;;;;;;;13.20;11.03;;;6.80;66.00;;;;;;10444334;28;20197;-83
2022/03/05 10:23:01;;;;;;;13.90;12.50;;;6.80;68.00;;;;;;10444100;28;20324;-84
2022/03/05 10:28:07;;;;;;;15.07;13.47;;;6.90;67.80;;;;;;10430935;28;20247;-83
2022/03/05 10:33:24;;;;;;;14.13;12.50;;;7.00;65.50;;;;;;10452841;28;20212;-83
2022/03/05 10:38:43;;;;;;;17.67;14.57;;;7.00;70.00;;;;;;10452877;28;20200;-84
2022/03/05 10:43:48;;;;;;;14.77;12.70;;;7.20;69.90;;;;;;10436104;28;20229;-83
2022/03/05 10:48:50;;;;;;;16.07;13.37;;;7.30;68.50;;;;;;10463245;28;20231;-84
2022/03/05 10:53:52;;;;;;;13.60;11.73;;;7.40;66.00;;;;;;10436735;28;20255;-83
2022/03/05 10:59:04;;;;;;;15.20;13.00;;;7.50;68.70;;;;;;10428044;28;20203;-84
2022/03/05 11:04:08;;;;;;;14.70;12.03;;;7.70;67.10;;;;;;10433972;28;20232;-84
2022/03/05 11:09:11;;;;;;;13.90;11.63;;;7.70;63.30;;;;;;10448868;28;20587;-83
2022/03/05 11:14:16;;;;;;;13.87;12.33;;;7.70;65.10;;;;;;10464205;28;20223;-84
2022/03/05 11:19:18;;;;;;;12.20;11.00;;;7.60;67.60;;;;;;10427957;28;20193;-83
2022/03/05 11:24:22;;;;;;;12.63;11.33;;;7.70;66.90;;;;;;10446034;28;20708;-84
2022/03/05 11:29:28;;;;;;;12.70;10.67;;;7.70;65.30;;;;;;10431934;28;20213;-83
2022/03/05 11:34:43;;;;;;;14.70;10.70;;;7.60;65.80;;;;;;10466803;28;20669;-83
2022/03/05 11:39:46;;;;;;;12.80;10.53;;;7.70;67.40;;;;;;10463972;28;20210;-84
2022/03/05 11:44:49;;;;;;;11.27;10.03;;;7.60;64.90;;;;;;10426249;28;20773;-84
2022/03/05 11:50:06;;;;;;;12.13;10.87;;;7.50;64.30;;;;;;10423544;28;20666;-83
2022/03/05 11:55:16;;;;;;;11.67;10.47;;;7.40;64.40;;;;;;10462545;28;20200;-83
2022/03/05 12:00:21;;;;;;;10.43;9.33;;;7.40;62.00;;;;;;10450192;28;20220;-83
2022/03/05 12:05:56;;;;;;;10.73;9.67;;;7.30;65.20;;;;;;10424488;28;20213;-82
2022/03/05 12:11:09;;;;;;;10.60;9.50;;;7.30;65.10;;;;;;10455394;28;20304;-83
2022/03/05 12:16:18;;;;;;;11.40;9.97;;;7.30;61.30;;;;;;10459745;28;20197;-85
2022/03/05 12:21:24;;;;;;;10.60;9.50;;;7.30;61.90;;;;;;10463175;28;20205;-83
2022/03/05 12:26:36;;;;;;;10.17;9.27;;;7.20;62.60;;;;;;10443064;28;20654;-83
2022/03/05 12:31:44;;;;;;;9.13;8.27;;;7.20;64.80;;;;;;10441457;28;20600;-83
2022/03/05 12:36:47;;;;;;;10.60;9.33;;;7.30;60.60;;;;;;10441769;28;20632;-84
2022/03/05 12:41:53;;;;;;;9.90;8.90;;;7.30;61.30;;;;;;10440239;28;20697;-85
2022/03/05 12:46:56;;;;;;;9.80;8.80;;;7.30;62.70;;;;;;10436558;28;20213;-82
2022/03/05 12:51:58;;;;;;;10.73;9.70;;;7.40;60.50;;;;;;10440628;28;20288;-84
2022/03/05 12:57:00;;;;;;;9.43;8.43;;;7.50;58.00;;;;;;10440666;28;20200;-84
2022/03/05 13:02:07;;;;;;;10.63;8.57;;;7.50;60.60;;;;;;10433514;28;20223;-82
2022/03/05 13:07:10;;;;;;;10.10;9.10;;;7.50;60.90;;;;;;10430002;28;20235;-81
2022/03/05 13:12:12;;;;;;;10.17;9.17;;;7.50;58.40;;;;;;10460650;28;20208;-80
2022/03/05 13:17:15;;;;;;;9.80;8.90;;;7.50;59.20;;;;;;10443654;28;20201;-84
2022/03/05 13:22:26;;;;;;;8.60;7.73;;;7.50;59.20;;;;;;10454603;28;20227;-82
2022/03/05 13:27:28;;;;;;;9.70;8.70;;;7.50;58.20;;;;;;10424842;28;20228;-83
2022/03/05 13:32:44;;;;;;;9.10;8.20;;;7.50;56.80;;;;;;10458685;28;20233;-82
2022/03/05 13:37:47;;;;;;;10.20;9.10;;;7.50;58.40;;;;;;10452260;28;20197;-82
2022/03/05 13:42:57;;;;;;;9.03;8.13;;;7.50;57.60;;;;;;10458130;28;20319;-82
2022/03/05 13:48:01;;;;;;;11.03;9.70;;;7.60;63.20;;;;;;10434861;28;20209;-81
2022/03/05 13:53:03;;;;;;;9.73;8.73;;;7.70;59.70;;;;;;10434719;28;20232;-81
2022/03/05 13:58:05;;;;;;;9.90;8.70;;;7.70;57.40;;;;;;10433192;28;20197;-81
2022/03/05 14:03:16;;;;;;;9.73;8.73;;;7.70;59.20;;;;;;10442275;28;20217;-83
2022/03/05 14:08:19;;;;;;;10.90;9.80;;;7.70;59.20;;;;;;10444794;28;20204;-83
2022/03/05 14:13:26;;;;;;;9.63;8.63;;;7.70;61.40;;;;;;10445706;28;20233;-83
2022/03/05 14:18:29;;;;;;;10.60;9.50;;;7.70;59.60;;;;;;10443912;28;20673;-83
2022/03/05 14:23:33;;;;;;;10.40;9.30;;;7.60;62.80;;;;;;10461913;28;20224;-83
2022/03/05 14:28:35;;;;;;;9.53;8.63;;;7.70;60.50;;;;;;10439954;28;20665;-83
2022/03/05 14:33:38;;;;;;;9.47;8.53;;;7.70;62.90;;;;;;10456276;28;20721;-83
2022/03/05 14:38:41;;;;;;;9.33;8.33;;;7.80;61.20;;;;;;10455975;28;20292;-82
2022/03/05 14:43:43;;;;;;;10.43;9.33;;;7.70;61.60;;;;;;10440401;28;20228;-81
2022/03/05 14:48:47;;;;;;;9.70;8.70;;;7.70;59.00;;;;;;10459703;28;20667;-82
2022/03/05 14:53:49;;;;;;;10.00;8.80;;;7.80;57.60;;;;;;10459285;28;20693;-82
2022/03/05 14:58:52;;;;;;;9.90;8.37;;;7.70;61.50;;;;;;10442729;28;20197;-82
2022/03/05 15:03:55;;;;;;;9.43;8.53;;;7.70;60.90;;;;;;10443402;28;20213;-83
2022/03/05 15:08:57;;;;;;;9.70;8.57;;;7.70;63.80;;;;;;10451046;28;20209;-83
2022/03/05 15:14:01;;;;;;;10.00;8.30;;;7.60;59.90;;;;;;10423754;28;20221;-84
2022/03/05 15:19:05;;;;;;;9.07;8.10;;;7.70;61.30;;;;;;10416478;28;20197;-84
2022/03/05 15:24:07;;;;;;;8.67;7.87;;;7.70;58.80;;;;;;10426383;28;20220;-82
2022/03/05 15:29:10;;;;;;;8.27;7.53;;;7.70;62.70;;;;;;10453988;28;20555;-84
2022/03/05 15:34:13;;;;;;;9.90;8.63;;;7.70;64.50;;;;;;10442860;28;20229;-84
2022/03/05 15:39:15;;;;;;;8.57;7.77;;;7.70;59.60;;;;;;10460500;28;20276;-84
2022/03/05 15:44:19;;;;;;;8.60;7.77;;;7.70;57.50;;;;;;10455486;28;20289;-82
2022/03/05 15:49:22;;;;;;;7.77;6.97;;;7.80;56.80;;;;;;10439271;28;20587;-83
2022/03/05 15:54:24;;;;;;;8.60;7.67;;;7.70;59.20;;;;;;10421548;28;20619;-84
2022/03/05 15:59:27;;;;;;;10.10;9.10;;;7.70;61.10;;;;;;10457860;28;20204;-84
2022/03/05 16:04:31;;;;;;;8.73;7.33;;;7.80;57.60;;;;;;10439866;28;20713;-84
2022/03/05 16:09:33;;;;;;;8.87;8.00;;;7.70;59.30;;;;;;10440977;28;20213;-84
2022/03/05 16:14:35;;;;;;;9.00;8.10;;;7.70;56.30;;;;;;10440263;28;20603;-83
2022/03/05 16:19:38;;;;;;;10.40;9.00;;;7.70;61.20;;;;;;10458616;28;20275;-84
2022/03/05 16:24:43;;;;;;;8.13;7.20;;;7.60;60.00;;;;;;10440438;28;20358;-84
2022/03/05 16:29:45;;;;;;;9.30;8.40;;;7.60;61.90;;;;;;10462558;28;20220;-84
2022/03/05 16:34:49;;;;;;;7.63;6.93;;;7.60;61.10;;;;;;10437632;28;20235;-84
2022/03/05 16:39:51;;;;;;;9.10;7.53;;;7.50;62.10;;;;;;10443293;28;20197;-84
2022/03/05 16:44:53;;;;;;;11.40;8.37;;;7.50;63.20;;;;;;10460061;28;20248;-83
2022/03/05 16:49:57;;;;;;;9.60;8.20;;;7.50;64.00;;;;;;10467433;28;20637;-83
2022/03/05 16:55:00;;;;;;;8.80;8.00;;;7.40;66.70;;;;;;10438921;28;20694;-83
2022/03/05 17:00:03;;;;;;;8.83;7.80;;;7.40;67.40;;;;;;10435203;28;20200;-83
2022/03/05 17:05:08;;;;;;;9.33;8.43;;;7.30;68.90;;;;;;10419123;28;20209;-83
2022/03/05 17:10:12;;;;;;;10.20;9.20;;;7.30;69.50;;;;;;10436781;28;20633;-84
2022/03/05 17:15:17;;;;;;;11.40;8.80;;;7.20;69.40;;;;;;10437717;28;20695;-83
2022/03/05 17:20:21;;;;;;;9.30;8.40;;;7.10;68.50;;;;;;10451665;28;20229;-83
2022/03/05 17:25:23;;;;;;;11.43;10.33;;;7.10;68.20;;;;;;10433161;28;20216;-83
2022/03/05 17:30:25;;;;;;;15.37;11.40;;;7.00;61.80;;;;;;10433050;28;20740;-84
2022/03/05 17:35:29;;;;;;;13.33;11.10;;;6.90;66.90;;;;;;10457808;28;20559;-84
2022/03/05 17:40:31;;;;;;;10.60;9.00;;;6.90;65.00;;;;;;10442638;28;20252;-81
2022/03/05 17:45:33;;;;;;;13.60;11.77;;;6.80;62.10;;;;;;10463241;28;20209;-80
2022/03/05 17:50:36;;;;;;;11.40;10.20;;;6.70;60.70;;;;;;10424922;28;20328;-82
2022/03/05 17:55:38;;;;;;;13.10;11.37;;;6.60;65.40;;;;;;10460510;28;20228;-85
2022/03/05 18:00:43;;;;;;;15.43;11.83;;;6.60;67.60;;;;;;10441487;28;20681;-82
2022/03/05 18:05:46;;;;;;;10.60;9.40;;;6.50;66.80;;;;;;10439155;28;20300;-82
2022/03/05 18:10:49;;;;;;;11.80;10.60;;;6.50;64.70;;;;;;10455427;28;20250;-82
2022/03/05 18:15:51;;;;;;;15.17;12.70;;;6.40;68.20;;;;;;10473005;28;20568;-85
2022/03/05 18:20:55;;;;;;;15.10;12.90;;;6.40;67.00;;;;;;10451349;28;20249;-83
2022/03/05 18:25:57;;;;;;;20.07;15.50;;;6.30;66.30;;;;;;10446416;28;20589;-82
2022/03/05 18:30:59;;;;;;;14.23;12.73;;;6.30;67.60;;;;;;10439588;28;20237;-82
2022/03/05 18:36:03;;;;;;;13.53;11.60;;;6.20;68.10;;;;;;10430457;28;20220;-84
2022/03/05 18:41:06;;;;;;;16.80;14.93;;;6.10;67.40;;;;;;10434064;28;20786;-84
2022/03/05 18:46:08;;;;;;;18.83;15.20;;;6.10;68.40;;;;;;10431302;28;20201;-82
2022/03/05 18:51:15;;;;;;;18.93;16.87;;;6.00;68.20;;;;;;10441371;28;20740;-86
2022/03/05 18:56:17;;;;;;;20.37;18.33;;;6.00;68.40;;;;;;10430824;28;20203;-82
2022/03/05 19:01:20;;;;;;;15.63;13.93;;;5.90;68.30;;;;;;10451268;28;20685;-83
2022/03/05 19:06:23;;;;;;;16.73;14.93;;;5.80;69.30;;;;;;10451106;28;20212;-83
2022/03/05 19:11:25;;;;;;;24.87;19.83;;;5.70;69.30;;;;;;10430629;28;20279;-85
2022/03/05 19:16:27;;;;;;;17.33;13.57;;;5.60;68.70;;;;;;10437308;28;20205;-84
2022/03/05 19:21:32;;;;;;;15.80;13.70;;;5.50;68.10;;;;;;10430116;28;20275;-82
2022/03/05 19:26:34;;;;;;;16.30;14.47;;;5.40;66.30;;;;;;10420470;28;20212;-83
2022/03/05 19:31:37;;;;;;;18.00;14.70;;;5.30;67.70;;;;;;10419555;28;20241;-81
2022/03/05 19:36:40;;;;;;;19.40;15.90;;;5.20;66.90;;;;;;10436338;28;20552;-83
2022/03/05 19:41:42;;;;;;;20.43;16.00;;;5.10;68.10;;;;;;10452780;28;20229;-81
2022/03/05 19:46:45;;;;;;;20.40;16.20;;;4.90;68.60;;;;;;10437567;28;20247;-82
2022/03/05 19:51:48;;;;;;;16.17;14.10;;;4.80;68.40;;;;;;10437762;28;20639;-85
2022/03/05 19:56:50;;;;;;;14.63;12.73;;;4.60;68.20;;;;;;10434113;28;20217;-84
2022/03/05 20:01:53;;;;;;;15.37;13.07;;;4.50;69.10;;;;;;10433623;28;20217;-83
2022/03/05 20:06:56;;;;;;;18.67;13.80;;;4.40;67.80;;;;;;10429772;28;20266;-83
2022/03/05 20:11:59;;;;;;;15.07;12.63;;;4.30;69.10;;;;;;10435003;28;20263;-82
2022/03/05 20:17:01;;;;;;;12.77;11.30;;;4.20;70.00;;;;;;10433704;28;20585;-84
2022/03/05 20:22:05;;;;;;;15.37;12.10;;;4.10;69.00;;;;;;10429682;28;20312;-83
2022/03/05 20:27:07;;;;;;;13.30;11.90;;;4.10;70.30;;;;;;10405431;28;20742;-85
2022/03/05 20:32:10;;;;;;;16.77;12.00;;;4.00;70.80;;;;;;10431443;28;20221;-83
2022/03/05 20:37:15;;;;;;;14.60;12.27;;;3.90;70.80;;;;;;10416544;28;20616;-84
2022/03/05 20:42:23;;;;;;;17.90;13.13;;;3.90;71.10;;;;;;10467302;22;20599;-82
2022/03/05 20:47:26;;;;;;;17.73;13.70;;;3.80;70.60;;;;;;10427076;28;20205;-80
2022/03/05 20:52:30;;;;;;;16.83;13.20;;;3.70;70.60;;;;;;10427050;28;20229;-80
2022/03/05 20:57:38;;;;;;;14.50;11.63;;;3.60;72.00;;;;;;10428919;28;20248;-79
2022/03/05 21:02:41;;;;;;;11.97;10.67;;;3.60;72.20;;;;;;10414220;28;20232;-79
2022/03/05 21:07:52;;;;;;;14.30;12.50;;;3.50;72.30;;;;;;10450251;28;20205;-79
2022/03/05 21:12:54;;;;;;;14.47;12.33;;;3.50;71.20;;;;;;10414381;28;20237;-79
2022/03/05 21:18:01;;;;;;;15.00;12.27;;;3.50;73.10;;;;;;10410822;28;20201;-79
2022/03/05 21:23:11;;;;;;;14.57;12.30;;;3.50;71.90;;;;;;10425176;28;20213;-79
2022/03/05 21:28:19;;;;;;;14.70;13.00;;;3.40;71.90;;;;;;10427358;28;20209;-81
2022/03/05 21:33:33;;;;;;;18.87;14.00;;;3.40;71.80;;;;;;10428918;28;20229;-81
2022/03/05 21:38:37;;;;;;;14.50;12.80;;;3.40;73.60;;;;;;10426452;28;20207;-81
2022/03/05 21:43:39;;;;;;;15.40;13.47;;;3.40;72.60;;;;;;10408941;28;20225;-81
2022/03/05 21:48:41;;;;;;;16.43;14.40;;;3.40;74.10;;;;;;10419382;28;20619;-83
2022/03/05 21:53:47;;;;;;;12.70;11.40;;;3.40;72.80;;;;;;10412512;28;20229;-83
2022/03/05 21:58:51;;;;;;;15.47;12.63;;;3.30;70.00;;;;;;10438244;28;20197;-83
2022/03/05 22:03:57;;;;;;;13.90;11.40;;;3.20;72.80;;;;;;10402271;28;20228;-81
2022/03/05 22:09:09;;;;;;;13.50;11.63;;;3.20;73.80;;;;;;10431417;28;20207;-81
2022/03/05 22:14:11;;;;;;;14.67;12.07;;;3.20;72.90;;;;;;10433255;28;20224;-81
2022/03/05 22:19:14;;;;;;;15.60;13.23;;;3.10;72.10;;;;;;10427380;28;20197;-81
2022/03/05 22:24:19;;;;;;;14.13;12.40;;;3.10;73.80;;;;;;10424368;28;20213;-81
2022/03/05 22:29:21;;;;;;;16.60;13.83;;;3.10;74.80;;;;;;10449347;28;20204;-80
2022/03/05 22:34:24;;;;;;;14.20;11.83;;;3.10;74.10;;;;;;10422539;28;20222;-81
2022/03/05 22:39:27;;;;;;;14.70;11.70;;;3.10;73.70;;;;;;10418524;28;20209;-81
2022/03/05 22:44:29;;;;;;;13.30;11.90;;;3.00;73.20;;;;;;10432928;28;20298;-81
2022/03/05 22:49:31;;;;;;;14.90;13.33;;;2.90;71.90;;;;;;10450696;28;20224;-81
2022/03/05 22:54:35;;;;;;;13.97;12.50;;;2.80;72.50;;;;;;10431001;28;20312;-81
2022/03/05 22:59:37;;;;;;;15.43;11.93;;;2.70;73.40;;;;;;10423937;28;20231;-81
2022/03/05 23:04:39;;;;;;;13.53;10.73;;;2.70;74.20;;;;;;10446137;28;20280;-80
2022/03/05 23:09:43;;;;;;;19.53;15.27;;;2.70;73.40;;;;;;10437165;28;20916;-81
2022/03/05 23:14:45;;;;;;;19.07;14.20;;;2.70;75.10;;;;;;10419051;28;20736;-80
2022/03/05 23:19:47;;;;;;;16.73;13.00;;;2.60;73.80;;;;;;10435728;28;20574;-80
2022/03/05 23:24:50;;;;;;;18.20;13.60;;;2.60;75.70;;;;;;10427301;28;20685;-81
2022/03/05 23:29:52;;;;;;;18.27;13.70;;;2.60;76.60;;;;;;10431914;28;20244;-81
2022/03/05 23:34:54;;;;;;;15.00;12.00;;;2.60;76.70;;;;;;10447276;28;20221;-81
2022/03/05 23:39:58;;;;;;;15.60;12.40;;;2.70;75.10;;;;;;10420651;28;20212;-81
2022/03/05 23:45:00;;;;;;;15.27;12.80;;;2.60;74.80;;;;;;10454534;28;20253;-80
2022/03/05 23:50:04;;;;;;;15.97;13.47;;;2.60;75.20;;;;;;10422400;28;20643;-81
2022/03/05 23:55:09;;;;;;;16.60;12.90;;;2.70;76.00;;;;;;10431736;28;20236;-81
